sensor_id;sensor_type;location;lat;lon;timestamp;temperature;humidity
25188;DHT22;13141;50.414;8.050;2023-02-28T00:00:14;3.20;99.90
25188;DHT22;13141;50.414;8.050;2023-02-28T00:02:40;3.20;99.90
25188;DHT22;13141;50.414;8.050;2023-02-28T00:05:08;3.20;99.90
25188;DHT22;13141;50.414;8.050;2023-02-28T00:07:35;3.10;99.90
25188;DHT22;13141;50.414;8.050;2023-02-28T00:10:01;3.10;99.90
25188;DHT22;13141;50.414;8.050;2023-02-28T00:12:27;3.00;99.90
25188;DHT22;13141;50.414;8.050;2023-02-28T00:14:52;3.00;99.90
25188;DHT22;13141;50.414;8.050;2023-02-28T00:17:18;3.00;99.90
25188;DHT22;13141;50.414;8.050;2023-02-28T00:19:44;2.90;99.90
25188;DHT22;13141;50.414;8.050;2023-02-28T00:22:11;2.90;99.90
25188;DHT22;13141;50.414;8.050;2023-02-28T00:24:38;2.90;99.90
25188;DHT22;13141;50.414;8.050;2023-02-28T00:27:04;2.90;99.90
25188;DHT22;13141;50.414;8.050;2023-02-28T00:29:29;2.80;99.90
25188;DHT22;13141;50.414;8.050;2023-02-28T00:31:55;2.70;99.90
25188;DHT22;13141;50.414;8.050;2023-02-28T00:34:20;2.70;99.90
25188;DHT22;13141;50.414;8.050;2023-02-28T00:36:46;2.70;99.90
25188;DHT22;13141;50.414;8.050;2023-02-28T00:39:11;2.70;99.90
25188;DHT22;13141;50.414;8.050;2023-02-28T00:41:38;2.70;99.90
25188;DHT22;13141;50.414;8.050;2023-02-28T00:44:05;2.80;99.90
25188;DHT22;13141;50.414;8.050;2023-02-28T00:46:31;2.70;99.90
25188;DHT22;13141;50.414;8.050;2023-02-28T00:48:56;2.60;99.90
25188;DHT22;13141;50.414;8.050;2023-02-28T00:51:22;2.60;99.90
25188;DHT22;13141;50.414;8.050;2023-02-28T00:53:47;2.60;99.90
25188;DHT22;13141;50.414;8.050;2023-02-28T00:56:13;2.60;99.90
25188;DHT22;13141;50.414;8.050;2023-02-28T00:58:40;2.60;99.90
25188;DHT22;13141;50.414;8.050;2023-02-28T01:01:06;2.70;99.90
25188;DHT22;13141;50.414;8.050;2023-02-28T01:03:32;2.50;99.90
25188;DHT22;13141;50.414;8.050;2023-02-28T01:05:58;2.60;99.90
25188;DHT22;13141;50.414;8.050;2023-02-28T01:08:23;2.40;99.90
25188;DHT22;13141;50.414;8.050;2023-02-28T01:10:49;2.40;99.90
25188;DHT22;13141;50.414;8.050;2023-02-28T01:13:15;2.30;99.90
25188;DHT22;13141;50.414;8.050;2023-02-28T01:15:46;2.40;99.90
25188;DHT22;13141;50.414;8.050;2023-02-28T01:18:14;2.30;99.90
25188;DHT22;13141;50.414;8.050;2023-02-28T01:20:39;2.40;99.90
25188;DHT22;13141;50.414;8.050;2023-02-28T01:23:05;2.40;99.90
25188;DHT22;13141;50.414;8.050;2023-02-28T01:25:31;2.40;99.90
25188;DHT22;13141;50.414;8.050;2023-02-28T01:27:59;2.40;99.90
25188;DHT22;13141;50.414;8.050;2023-02-28T01:30:24;2.40;99.90
25188;DHT22;13141;50.414;8.050;2023-02-28T01:32:51;2.40;99.90
25188;DHT22;13141;50.414;8.050;2023-02-28T01:35:17;2.50;99.90
25188;DHT22;13141;50.414;8.050;2023-02-28T01:37:42;2.70;99.90
25188;DHT22;13141;50.414;8.050;2023-02-28T01:40:09;2.50;99.90
25188;DHT22;13141;50.414;8.050;2023-02-28T01:42:35;2.50;99.90
25188;DHT22;13141;50.414;8.050;2023-02-28T01:45:04;2.50;99.90
25188;DHT22;13141;50.414;8.050;2023-02-28T01:47:33;2.50;99.90
25188;DHT22;13141;50.414;8.050;2023-02-28T01:50:04;2.50;99.90
25188;DHT22;13141;50.414;8.050;2023-02-28T01:52:32;2.50;99.90
25188;DHT22;13141;50.414;8.050;2023-02-28T01:55:00;2.50;99.90
25188;DHT22;13141;50.414;8.050;2023-02-28T01:57:30;2.40;99.90
25188;DHT22;13141;50.414;8.050;2023-02-28T01:59:59;2.40;99.90
25188;DHT22;13141;50.414;8.050;2023-02-28T02:02:26;2.40;99.90
25188;DHT22;13141;50.414;8.050;2023-02-28T02:04:54;2.30;99.90
25188;DHT22;13141;50.414;8.050;2023-02-28T02:07:23;2.20;99.90
25188;DHT22;13141;50.414;8.050;2023-02-28T02:09:50;2.20;99.90
25188;DHT22;13141;50.414;8.050;2023-02-28T02:12:24;2.20;99.90
25188;DHT22;13141;50.414;8.050;2023-02-28T02:15:01;2.20;99.90
25188;DHT22;13141;50.414;8.050;2023-02-28T02:17:33;2.10;99.90
25188;DHT22;13141;50.414;8.050;2023-02-28T02:20:23;2.10;99.90
25188;DHT22;13141;50.414;8.050;2023-02-28T02:25:48;1.50;99.90
25188;DHT22;13141;50.414;8.050;2023-02-28T02:28:41;2.00;99.90
25188;DHT22;13141;50.414;8.050;2023-02-28T02:31:32;1.90;99.90
25188;DHT22;13141;50.414;8.050;2023-02-28T02:37:06;1.80;99.90
25188;DHT22;13141;50.414;8.050;2023-02-28T02:39:40;1.80;99.90
25188;DHT22;13141;50.414;8.050;2023-02-28T02:42:13;1.80;99.90
25188;DHT22;13141;50.414;8.050;2023-02-28T02:44:43;1.80;99.90
25188;DHT22;13141;50.414;8.050;2023-02-28T02:47:14;1.70;99.90
25188;DHT22;13141;50.414;8.050;2023-02-28T02:49:45;1.70;99.90
25188;DHT22;13141;50.414;8.050;2023-02-28T02:52:15;1.70;99.90
25188;DHT22;13141;50.414;8.050;2023-02-28T02:54:45;1.70;99.90
25188;DHT22;13141;50.414;8.050;2023-02-28T02:57:15;1.80;99.90
25188;DHT22;13141;50.414;8.050;2023-02-28T02:59:43;1.70;99.90
25188;DHT22;13141;50.414;8.050;2023-02-28T03:02:12;1.60;99.90
25188;DHT22;13141;50.414;8.050;2023-02-28T03:04:42;1.60;99.90
25188;DHT22;13141;50.414;8.050;2023-02-28T03:07:08;1.50;99.90
25188;DHT22;13141;50.414;8.050;2023-02-28T03:09:35;1.50;99.90
25188;DHT22;13141;50.414;8.050;2023-02-28T03:12:00;1.50;99.90
25188;DHT22;13141;50.414;8.050;2023-02-28T03:14:43;1.50;99.90
25188;DHT22;13141;50.414;8.050;2023-02-28T03:17:29;1.50;99.90
25188;DHT22;13141;50.414;8.050;2023-02-28T03:20:04;1.40;99.90
25188;DHT22;13141;50.414;8.050;2023-02-28T03:22:46;1.40;99.90
25188;DHT22;13141;50.414;8.050;2023-02-28T03:25:18;1.30;99.90
25188;DHT22;13141;50.414;8.050;2023-02-28T03:27:51;1.30;99.90
25188;DHT22;13141;50.414;8.050;2023-02-28T03:30:24;1.30;99.90
25188;DHT22;13141;50.414;8.050;2023-02-28T03:32:54;1.30;99.90
25188;DHT22;13141;50.414;8.050;2023-02-28T03:35:25;1.30;99.90
25188;DHT22;13141;50.414;8.050;2023-02-28T03:37:53;1.30;99.90
25188;DHT22;13141;50.414;8.050;2023-02-28T03:40:22;0.50;99.90
25188;DHT22;13141;50.414;8.050;2023-02-28T03:42:53;1.30;99.90
25188;DHT22;13141;50.414;8.050;2023-02-28T03:45:23;1.30;99.90
25188;DHT22;13141;50.414;8.050;2023-02-28T03:47:54;1.20;99.90
25188;DHT22;13141;50.414;8.050;2023-02-28T03:50:24;1.20;99.90
25188;DHT22;13141;50.414;8.050;2023-02-28T03:52:53;1.20;99.90
25188;DHT22;13141;50.414;8.050;2023-02-28T03:55:21;1.10;99.90
25188;DHT22;13141;50.414;8.050;2023-02-28T03:57:54;1.20;99.90
25188;DHT22;13141;50.414;8.050;2023-02-28T04:00:27;1.20;99.90
25188;DHT22;13141;50.414;8.050;2023-02-28T04:02:53;1.10;99.90
25188;DHT22;13141;50.414;8.050;2023-02-28T04:05:19;1.10;99.90
25188;DHT22;13141;50.414;8.050;2023-02-28T04:07:47;1.10;99.90
25188;DHT22;13141;50.414;8.050;2023-02-28T04:10:13;1.10;99.90
25188;DHT22;13141;50.414;8.050;2023-02-28T04:12:40;1.10;99.90
25188;DHT22;13141;50.414;8.050;2023-02-28T04:15:07;1.00;99.90
25188;DHT22;13141;50.414;8.050;2023-02-28T04:17:33;1.00;99.90
25188;DHT22;13141;50.414;8.050;2023-02-28T04:19:58;1.00;99.90
25188;DHT22;13141;50.414;8.050;2023-02-28T04:22:24;1.10;99.90
25188;DHT22;13141;50.414;8.050;2023-02-28T04:24:51;1.00;99.90
25188;DHT22;13141;50.414;8.050;2023-02-28T04:27:16;1.00;99.90
25188;DHT22;13141;50.414;8.050;2023-02-28T04:29:42;1.00;99.90
25188;DHT22;13141;50.414;8.050;2023-02-28T04:32:07;1.10;99.90
25188;DHT22;13141;50.414;8.050;2023-02-28T04:34:33;1.00;99.90
25188;DHT22;13141;50.414;8.050;2023-02-28T04:36:59;1.10;99.90
25188;DHT22;13141;50.414;8.050;2023-02-28T04:39:24;1.00;99.90
25188;DHT22;13141;50.414;8.050;2023-02-28T04:41:51;1.00;99.90
25188;DHT22;13141;50.414;8.050;2023-02-28T04:44:17;1.20;99.90
25188;DHT22;13141;50.414;8.050;2023-02-28T04:46:43;0.90;99.90
25188;DHT22;13141;50.414;8.050;2023-02-28T04:49:11;1.20;99.90
25188;DHT22;13141;50.414;8.050;2023-02-28T04:51:37;0.90;99.90
25188;DHT22;13141;50.414;8.050;2023-02-28T04:54:03;0.90;99.90
25188;DHT22;13141;50.414;8.050;2023-02-28T04:56:29;0.90;99.90
25188;DHT22;13141;50.414;8.050;2023-02-28T04:58:56;0.80;99.90
25188;DHT22;13141;50.414;8.050;2023-02-28T05:01:23;0.80;99.90
25188;DHT22;13141;50.414;8.050;2023-02-28T05:03:50;0.80;99.90
25188;DHT22;13141;50.414;8.050;2023-02-28T05:06:16;0.80;99.90
25188;DHT22;13141;50.414;8.050;2023-02-28T05:08:42;0.80;99.90
25188;DHT22;13141;50.414;8.050;2023-02-28T05:11:16;0.70;99.90
25188;DHT22;13141;50.414;8.050;2023-02-28T05:13:42;1.00;99.90
25188;DHT22;13141;50.414;8.050;2023-02-28T05:16:09;1.10;99.90
25188;DHT22;13141;50.414;8.050;2023-02-28T05:18:35;0.80;99.90
25188;DHT22;13141;50.414;8.050;2023-02-28T05:21:00;1.00;99.90
25188;DHT22;13141;50.414;8.050;2023-02-28T05:23:26;0.70;99.90
25188;DHT22;13141;50.414;8.050;2023-02-28T05:25:52;1.10;99.90
25188;DHT22;13141;50.414;8.050;2023-02-28T05:28:17;0.70;99.90
25188;DHT22;13141;50.414;8.050;2023-02-28T05:30:43;0.60;99.90
25188;DHT22;13141;50.414;8.050;2023-02-28T05:33:15;0.60;99.90
25188;DHT22;13141;50.414;8.050;2023-02-28T05:35:41;0.60;99.90
25188;DHT22;13141;50.414;8.050;2023-02-28T05:38:07;0.60;99.90
25188;DHT22;13141;50.414;8.050;2023-02-28T05:40:33;0.60;99.90
25188;DHT22;13141;50.414;8.050;2023-02-28T05:42:58;0.60;99.90
25188;DHT22;13141;50.414;8.050;2023-02-28T05:45:24;0.90;99.90
25188;DHT22;13141;50.414;8.050;2023-02-28T05:47:53;0.60;99.90
25188;DHT22;13141;50.414;8.050;2023-02-28T05:50:20;0.60;99.90
25188;DHT22;13141;50.414;8.050;2023-02-28T05:52:49;0.60;99.90
25188;DHT22;13141;50.414;8.050;2023-02-28T05:55:15;0.60;99.90
25188;DHT22;13141;50.414;8.050;2023-02-28T05:57:40;0.70;99.90
25188;DHT22;13141;50.414;8.050;2023-02-28T06:00:08;0.70;99.90
25188;DHT22;13141;50.414;8.050;2023-02-28T06:02:34;0.80;99.90
25188;DHT22;13141;50.414;8.050;2023-02-28T06:04:59;0.80;99.90
25188;DHT22;13141;50.414;8.050;2023-02-28T06:07:26;0.80;99.90
25188;DHT22;13141;50.414;8.050;2023-02-28T06:09:52;0.80;99.90
25188;DHT22;13141;50.414;8.050;2023-02-28T06:12:17;0.80;99.90
25188;DHT22;13141;50.414;8.050;2023-02-28T06:14:43;0.80;99.90
25188;DHT22;13141;50.414;8.050;2023-02-28T06:17:09;1.20;99.90
25188;DHT22;13141;50.414;8.050;2023-02-28T06:19:36;1.00;99.90
25188;DHT22;13141;50.414;8.050;2023-02-28T06:22:02;0.80;99.90
25188;DHT22;13141;50.414;8.050;2023-02-28T06:24:29;0.90;99.90
25188;DHT22;13141;50.414;8.050;2023-02-28T06:26:55;0.90;99.90
25188;DHT22;13141;50.414;8.050;2023-02-28T06:29:20;0.90;99.90
25188;DHT22;13141;50.414;8.050;2023-02-28T06:31:46;1.10;99.90
25188;DHT22;13141;50.414;8.050;2023-02-28T06:34:13;0.90;99.90
25188;DHT22;13141;50.414;8.050;2023-02-28T06:36:38;1.30;99.90
25188;DHT22;13141;50.414;8.050;2023-02-28T06:39:04;0.90;99.90
25188;DHT22;13141;50.414;8.050;2023-02-28T06:41:31;0.80;99.90
25188;DHT22;13141;50.414;8.050;2023-02-28T06:43:57;0.80;99.90
25188;DHT22;13141;50.414;8.050;2023-02-28T06:46:22;0.90;99.90
25188;DHT22;13141;50.414;8.050;2023-02-28T06:48:48;0.90;99.90
25188;DHT22;13141;50.414;8.050;2023-02-28T06:51:16;1.00;99.90
25188;DHT22;13141;50.414;8.050;2023-02-28T06:53:42;1.00;99.90
25188;DHT22;13141;50.414;8.050;2023-02-28T06:56:10;1.00;99.90
25188;DHT22;13141;50.414;8.050;2023-02-28T06:58:37;1.10;99.90
25188;DHT22;13141;50.414;8.050;2023-02-28T07:01:03;1.10;99.90
25188;DHT22;13141;50.414;8.050;2023-02-28T07:03:29;1.10;99.90
25188;DHT22;13141;50.414;8.050;2023-02-28T07:05:55;1.10;99.90
25188;DHT22;13141;50.414;8.050;2023-02-28T07:08:21;1.10;99.90
25188;DHT22;13141;50.414;8.050;2023-02-28T07:10:46;1.10;99.90
25188;DHT22;13141;50.414;8.050;2023-02-28T07:13:12;1.10;99.90
25188;DHT22;13141;50.414;8.050;2023-02-28T07:15:39;1.10;99.90
25188;DHT22;13141;50.414;8.050;2023-02-28T07:18:04;1.10;99.90
25188;DHT22;13141;50.414;8.050;2023-02-28T07:20:30;1.10;99.90
25188;DHT22;13141;50.414;8.050;2023-02-28T07:22:55;1.10;99.90
25188;DHT22;13141;50.414;8.050;2023-02-28T07:25:21;1.10;99.90
25188;DHT22;13141;50.414;8.050;2023-02-28T07:27:47;1.20;99.90
25188;DHT22;13141;50.414;8.050;2023-02-28T07:30:13;1.20;99.90
25188;DHT22;13141;50.414;8.050;2023-02-28T07:32:40;1.30;99.90
25188;DHT22;13141;50.414;8.050;2023-02-28T07:35:07;1.40;99.90
25188;DHT22;13141;50.414;8.050;2023-02-28T07:37:32;1.40;99.90
25188;DHT22;13141;50.414;8.050;2023-02-28T07:39:58;1.40;99.90
25188;DHT22;13141;50.414;8.050;2023-02-28T07:42:23;1.50;99.90
25188;DHT22;13141;50.414;8.050;2023-02-28T07:44:49;1.50;99.90
25188;DHT22;13141;50.414;8.050;2023-02-28T07:47:15;1.60;99.90
25188;DHT22;13141;50.414;8.050;2023-02-28T07:49:41;1.60;99.90
25188;DHT22;13141;50.414;8.050;2023-02-28T07:52:07;1.60;99.90
25188;DHT22;13141;50.414;8.050;2023-02-28T07:54:33;1.60;99.70
25188;DHT22;13141;50.414;8.050;2023-02-28T07:56:59;1.60;99.60
25188;DHT22;13141;50.414;8.050;2023-02-28T07:59:25;1.70;99.40
25188;DHT22;13141;50.414;8.050;2023-02-28T08:01:51;1.80;99.40
25188;DHT22;13141;50.414;8.050;2023-02-28T08:04:16;1.80;99.20
25188;DHT22;13141;50.414;8.050;2023-02-28T08:06:44;1.80;98.70
25188;DHT22;13141;50.414;8.050;2023-02-28T08:09:10;1.90;98.40
25188;DHT22;13141;50.414;8.050;2023-02-28T08:11:35;1.80;98.40
25188;DHT22;13141;50.414;8.050;2023-02-28T08:14:01;2.00;98.60
25188;DHT22;13141;50.414;8.050;2023-02-28T08:16:26;2.00;97.60
25188;DHT22;13141;50.414;8.050;2023-02-28T08:18:52;2.00;97.40
25188;DHT22;13141;50.414;8.050;2023-02-28T08:21:18;2.20;97.30
25188;DHT22;13141;50.414;8.050;2023-02-28T08:23:48;2.10;97.30
25188;DHT22;13141;50.414;8.050;2023-02-28T08:26:14;2.20;97.50
25188;DHT22;13141;50.414;8.050;2023-02-28T08:28:39;2.20;97.20
25188;DHT22;13141;50.414;8.050;2023-02-28T08:31:09;2.30;97.00
25188;DHT22;13141;50.414;8.050;2023-02-28T08:33:35;2.40;96.90
25188;DHT22;13141;50.414;8.050;2023-02-28T08:36:00;2.50;96.20
25188;DHT22;13141;50.414;8.050;2023-02-28T08:38:26;2.60;96.30
25188;DHT22;13141;50.414;8.050;2023-02-28T08:40:58;2.80;96.20
25188;DHT22;13141;50.414;8.050;2023-02-28T08:43:24;3.10;96.30
25188;DHT22;13141;50.414;8.050;2023-02-28T08:45:51;3.40;95.80
25188;DHT22;13141;50.414;8.050;2023-02-28T08:48:17;3.60;94.90
25188;DHT22;13141;50.414;8.050;2023-02-28T08:50:42;3.80;94.50
25188;DHT22;13141;50.414;8.050;2023-02-28T08:53:08;4.00;93.80
25188;DHT22;13141;50.414;8.050;2023-02-28T08:55:34;4.30;93.90
25188;DHT22;13141;50.414;8.050;2023-02-28T08:58:01;4.50;94.00
25188;DHT22;13141;50.414;8.050;2023-02-28T09:00:26;4.70;93.80
25188;DHT22;13141;50.414;8.050;2023-02-28T09:02:52;4.90;93.40
25188;DHT22;13141;50.414;8.050;2023-02-28T09:05:17;5.00;92.20
25188;DHT22;13141;50.414;8.050;2023-02-28T09:07:43;5.20;93.00
25188;DHT22;13141;50.414;8.050;2023-02-28T09:10:09;5.30;91.40
25188;DHT22;13141;50.414;8.050;2023-02-28T09:12:35;5.40;91.00
25188;DHT22;13141;50.414;8.050;2023-02-28T09:15:03;5.60;91.40
25188;DHT22;13141;50.414;8.050;2023-02-28T09:17:29;5.70;90.30
25188;DHT22;13141;50.414;8.050;2023-02-28T09:19:54;5.80;90.50
25188;DHT22;13141;50.414;8.050;2023-02-28T09:22:20;5.90;90.30
25188;DHT22;13141;50.414;8.050;2023-02-28T09:24:45;6.10;89.70
25188;DHT22;13141;50.414;8.050;2023-02-28T09:27:11;6.20;89.50
25188;DHT22;13141;50.414;8.050;2023-02-28T09:29:37;6.30;88.60
25188;DHT22;13141;50.414;8.050;2023-02-28T09:32:04;6.40;88.30
25188;DHT22;13141;50.414;8.050;2023-02-28T09:34:29;6.40;86.50
25188;DHT22;13141;50.414;8.050;2023-02-28T09:36:55;6.70;89.50
25188;DHT22;13141;50.414;8.050;2023-02-28T09:39:21;6.90;88.90
25188;DHT22;13141;50.414;8.050;2023-02-28T09:41:49;7.10;84.00
25188;DHT22;13141;50.414;8.050;2023-02-28T09:44:20;7.20;84.50
25188;DHT22;13141;50.414;8.050;2023-02-28T09:46:50;7.40;84.80
25188;DHT22;13141;50.414;8.050;2023-02-28T09:49:19;7.60;83.60
25188;DHT22;13141;50.414;8.050;2023-02-28T09:51:51;8.00;81.70
25188;DHT22;13141;50.414;8.050;2023-02-28T09:54:22;7.90;79.70
25188;DHT22;13141;50.414;8.050;2023-02-28T09:56:50;8.00;79.50
25188;DHT22;13141;50.414;8.050;2023-02-28T09:59:28;8.00;78.90
25188;DHT22;13141;50.414;8.050;2023-02-28T10:02:03;8.10;75.80
25188;DHT22;13141;50.414;8.050;2023-02-28T10:04:42;8.40;77.80
25188;DHT22;13141;50.414;8.050;2023-02-28T10:07:17;8.40;76.00
25188;DHT22;13141;50.414;8.050;2023-02-28T10:09:45;8.50;74.90
25188;DHT22;13141;50.414;8.050;2023-02-28T10:12:12;8.70;76.80
25188;DHT22;13141;50.414;8.050;2023-02-28T10:14:45;9.00;76.70
25188;DHT22;13141;50.414;8.050;2023-02-28T10:17:13;9.30;73.20
25188;DHT22;13141;50.414;8.050;2023-02-28T10:19:47;9.30;71.80
25188;DHT22;13141;50.414;8.050;2023-02-28T10:22:19;9.50;74.00
25188;DHT22;13141;50.414;8.050;2023-02-28T10:24:47;9.80;74.70
25188;DHT22;13141;50.414;8.050;2023-02-28T10:27:15;9.90;71.70
25188;DHT22;13141;50.414;8.050;2023-02-28T10:29:43;9.80;73.20
25188;DHT22;13141;50.414;8.050;2023-02-28T10:32:12;10.00;69.50
25188;DHT22;13141;50.414;8.050;2023-02-28T10:34:38;10.00;70.70
25188;DHT22;13141;50.414;8.050;2023-02-28T10:37:05;10.30;71.00
25188;DHT22;13141;50.414;8.050;2023-02-28T10:39:39;10.40;66.80
25188;DHT22;13141;50.414;8.050;2023-02-28T10:42:19;10.80;65.80
25188;DHT22;13141;50.414;8.050;2023-02-28T10:44:44;10.60;66.70
25188;DHT22;13141;50.414;8.050;2023-02-28T10:47:14;10.70;66.60
25188;DHT22;13141;50.414;8.050;2023-02-28T10:49:47;10.90;68.50
25188;DHT22;13141;50.414;8.050;2023-02-28T10:52:33;11.00;65.00
25188;DHT22;13141;50.414;8.050;2023-02-28T10:55:16;11.20;62.60
25188;DHT22;13141;50.414;8.050;2023-02-28T10:57:41;11.20;63.60
25188;DHT22;13141;50.414;8.050;2023-02-28T11:00:15;11.10;63.70
25188;DHT22;13141;50.414;8.050;2023-02-28T11:02:41;11.10;62.00
25188;DHT22;13141;50.414;8.050;2023-02-28T11:05:27;11.20;60.90
25188;DHT22;13141;50.414;8.050;2023-02-28T11:07:56;11.60;63.80
25188;DHT22;13141;50.414;8.050;2023-02-28T11:10:27;11.50;60.80
25188;DHT22;13141;50.414;8.050;2023-02-28T11:12:55;11.30;59.80
25188;DHT22;13141;50.414;8.050;2023-02-28T11:15:23;11.40;62.10
25188;DHT22;13141;50.414;8.050;2023-02-28T11:17:54;11.70;59.90
25188;DHT22;13141;50.414;8.050;2023-02-28T11:20:22;11.90;60.70
25188;DHT22;13141;50.414;8.050;2023-02-28T11:22:50;12.00;60.10
25188;DHT22;13141;50.414;8.050;2023-02-28T11:25:21;11.60;58.70
25188;DHT22;13141;50.414;8.050;2023-02-28T11:27:49;11.60;59.80
25188;DHT22;13141;50.414;8.050;2023-02-28T11:30:33;11.50;58.00
25188;DHT22;13141;50.414;8.050;2023-02-28T11:33:00;11.10;57.80
25188;DHT22;13141;50.414;8.050;2023-02-28T11:35:28;10.60;57.30
25188;DHT22;13141;50.414;8.050;2023-02-28T11:37:55;10.20;57.80
25188;DHT22;13141;50.414;8.050;2023-02-28T11:40:31;9.70;58.70
25188;DHT22;13141;50.414;8.050;2023-02-28T11:43:09;9.60;60.40
25188;DHT22;13141;50.414;8.050;2023-02-28T11:45:45;9.70;60.80
25188;DHT22;13141;50.414;8.050;2023-02-28T11:48:20;9.80;59.60
25188;DHT22;13141;50.414;8.050;2023-02-28T11:50:52;9.90;61.10
25188;DHT22;13141;50.414;8.050;2023-02-28T11:53:30;9.70;59.10
25188;DHT22;13141;50.414;8.050;2023-02-28T11:56:05;9.60;59.60
25188;DHT22;13141;50.414;8.050;2023-02-28T11:58:43;9.30;57.50
25188;DHT22;13141;50.414;8.050;2023-02-28T12:01:21;9.10;59.30
25188;DHT22;13141;50.414;8.050;2023-02-28T12:03:56;9.30;59.70
25188;DHT22;13141;50.414;8.050;2023-02-28T12:06:27;10.00;59.70
25188;DHT22;13141;50.414;8.050;2023-02-28T12:09:04;10.40;59.20
25188;DHT22;13141;50.414;8.050;2023-02-28T12:11:48;10.40;57.70
25188;DHT22;13141;50.414;8.050;2023-02-28T12:17:37;10.80;59.00
25188;DHT22;13141;50.414;8.050;2023-02-28T12:20:17;10.90;58.60
25188;DHT22;13141;50.414;8.050;2023-02-28T12:22:53;10.90;58.30
25188;DHT22;13141;50.414;8.050;2023-02-28T12:28:04;11.00;59.10
25188;DHT22;13141;50.414;8.050;2023-02-28T12:30:32;11.40;58.90
25188;DHT22;13141;50.414;8.050;2023-02-28T12:33:04;12.00;61.00
25188;DHT22;13141;50.414;8.050;2023-02-28T12:35:34;12.50;58.10
25188;DHT22;13141;50.414;8.050;2023-02-28T12:38:05;12.80;59.00
25188;DHT22;13141;50.414;8.050;2023-02-28T12:40:45;13.10;57.60
25188;DHT22;13141;50.414;8.050;2023-02-28T12:43:15;13.40;56.30
25188;DHT22;13141;50.414;8.050;2023-02-28T12:45:45;13.40;54.70
25188;DHT22;13141;50.414;8.050;2023-02-28T12:48:15;13.40;57.60
25188;DHT22;13141;50.414;8.050;2023-02-28T12:50:43;13.50;57.60
25188;DHT22;13141;50.414;8.050;2023-02-28T12:53:13;13.10;54.20
25188;DHT22;13141;50.414;8.050;2023-02-28T12:55:45;12.70;55.90
25188;DHT22;13141;50.414;8.050;2023-02-28T12:58:17;13.50;55.70
25188;DHT22;13141;50.414;8.050;2023-02-28T13:01:00;13.60;54.60
25188;DHT22;13141;50.414;8.050;2023-02-28T13:06:45;13.70;56.70
25188;DHT22;13141;50.414;8.050;2023-02-28T13:09:17;14.00;55.90
25188;DHT22;13141;50.414;8.050;2023-02-28T13:11:45;13.90;54.70
25188;DHT22;13141;50.414;8.050;2023-02-28T13:14:25;13.80;55.40
25188;DHT22;13141;50.414;8.050;2023-02-28T13:16:56;13.10;55.50
25188;DHT22;13141;50.414;8.050;2023-02-28T13:19:24;14.00;56.00
25188;DHT22;13141;50.414;8.050;2023-02-28T13:21:51;14.20;56.20
25188;DHT22;13141;50.414;8.050;2023-02-28T13:24:37;14.20;53.50
25188;DHT22;13141;50.414;8.050;2023-02-28T13:27:31;14.10;54.10
25188;DHT22;13141;50.414;8.050;2023-02-28T13:30:00;14.10;54.10
25188;DHT22;13141;50.414;8.050;2023-02-28T13:32:34;14.40;54.50
25188;DHT22;13141;50.414;8.050;2023-02-28T13:38:13;14.20;53.90
25188;DHT22;13141;50.414;8.050;2023-02-28T13:40:40;14.10;55.10
25188;DHT22;13141;50.414;8.050;2023-02-28T13:43:08;14.20;55.30
25188;DHT22;13141;50.414;8.050;2023-02-28T13:45:35;14.40;53.60
25188;DHT22;13141;50.414;8.050;2023-02-28T13:48:02;14.50;54.30
25188;DHT22;13141;50.414;8.050;2023-02-28T13:50:31;14.20;55.20
25188;DHT22;13141;50.414;8.050;2023-02-28T13:53:19;14.40;55.90
25188;DHT22;13141;50.414;8.050;2023-02-28T13:55:53;14.70;53.60
25188;DHT22;13141;50.414;8.050;2023-02-28T13:58:42;14.80;54.20
25188;DHT22;13141;50.414;8.050;2023-02-28T14:01:22;14.90;54.30
25188;DHT22;13141;50.414;8.050;2023-02-28T14:04:16;14.90;54.00
25188;DHT22;13141;50.414;8.050;2023-02-28T14:06:49;15.00;54.10
25188;DHT22;13141;50.414;8.050;2023-02-28T14:09:20;14.80;54.40
25188;DHT22;13141;50.414;8.050;2023-02-28T14:11:47;14.30;52.00
25188;DHT22;13141;50.414;8.050;2023-02-28T14:17:14;13.90;54.00
25188;DHT22;13141;50.414;8.050;2023-02-28T14:19:44;14.10;53.90
25188;DHT22;13141;50.414;8.050;2023-02-28T14:22:24;14.00;53.10
25188;DHT22;13141;50.414;8.050;2023-02-28T14:25:09;14.20;54.90
25188;DHT22;13141;50.414;8.050;2023-02-28T14:27:43;14.50;55.10
25188;DHT22;13141;50.414;8.050;2023-02-28T14:33:10;14.60;53.60
25188;DHT22;13141;50.414;8.050;2023-02-28T14:35:50;14.60;51.90
25188;DHT22;13141;50.414;8.050;2023-02-28T14:38:20;15.00;54.00
25188;DHT22;13141;50.414;8.050;2023-02-28T14:40:49;14.80;53.40
25188;DHT22;13141;50.414;8.050;2023-02-28T14:43:21;14.70;53.40
25188;DHT22;13141;50.414;8.050;2023-02-28T14:45:50;14.60;52.80
25188;DHT22;13141;50.414;8.050;2023-02-28T14:48:19;14.70;51.80
25188;DHT22;13141;50.414;8.050;2023-02-28T14:50:49;14.50;51.70
25188;DHT22;13141;50.414;8.050;2023-02-28T14:53:18;14.40;52.90
25188;DHT22;13141;50.414;8.050;2023-02-28T14:55:46;14.30;50.40
25188;DHT22;13141;50.414;8.050;2023-02-28T14:58:22;14.20;51.50
25188;DHT22;13141;50.414;8.050;2023-02-28T15:00:49;14.20;51.50
25188;DHT22;13141;50.414;8.050;2023-02-28T15:03:20;14.20;53.00
25188;DHT22;13141;50.414;8.050;2023-02-28T15:05:52;14.30;51.40
25188;DHT22;13141;50.414;8.050;2023-02-28T15:08:18;14.10;50.80
25188;DHT22;13141;50.414;8.050;2023-02-28T15:10:44;13.90;50.00
25188;DHT22;13141;50.414;8.050;2023-02-28T15:13:12;13.80;51.00
25188;DHT22;13141;50.414;8.050;2023-02-28T15:15:45;13.60;51.70
25188;DHT22;13141;50.414;8.050;2023-02-28T15:18:20;13.40;49.90
25188;DHT22;13141;50.414;8.050;2023-02-28T15:20:47;13.20;51.00
25188;DHT22;13141;50.414;8.050;2023-02-28T15:23:14;13.20;51.40
25188;DHT22;13141;50.414;8.050;2023-02-28T15:25:40;13.20;50.70
25188;DHT22;13141;50.414;8.050;2023-02-28T15:28:14;13.10;50.70
25188;DHT22;13141;50.414;8.050;2023-02-28T15:30:51;13.10;51.30
25188;DHT22;13141;50.414;8.050;2023-02-28T15:33:23;13.10;52.70
25188;DHT22;13141;50.414;8.050;2023-02-28T15:35:49;13.00;51.50
25188;DHT22;13141;50.414;8.050;2023-02-28T15:38:18;12.80;51.50
25188;DHT22;13141;50.414;8.050;2023-02-28T15:40:45;12.70;52.40
25188;DHT22;13141;50.414;8.050;2023-02-28T15:43:17;12.60;52.40
25188;DHT22;13141;50.414;8.050;2023-02-28T15:45:45;12.60;53.10
25188;DHT22;13141;50.414;8.050;2023-02-28T15:48:17;12.50;53.00
25188;DHT22;13141;50.414;8.050;2023-02-28T15:50:48;12.40;52.60
25188;DHT22;13141;50.414;8.050;2023-02-28T15:53:16;12.40;52.00
25188;DHT22;13141;50.414;8.050;2023-02-28T15:55:42;12.30;52.60
25188;DHT22;13141;50.414;8.050;2023-02-28T15:58:09;12.10;52.80
25188;DHT22;13141;50.414;8.050;2023-02-28T16:00:36;12.00;52.40
25188;DHT22;13141;50.414;8.050;2023-02-28T16:03:25;11.90;52.30
25188;DHT22;13141;50.414;8.050;2023-02-28T16:08:59;11.50;53.40
25188;DHT22;13141;50.414;8.050;2023-02-28T16:11:25;11.30;53.80
25188;DHT22;13141;50.414;8.050;2023-02-28T16:13:52;11.20;53.50
25188;DHT22;13141;50.414;8.050;2023-02-28T16:16:18;11.00;54.10
25188;DHT22;13141;50.414;8.050;2023-02-28T16:18:45;10.80;53.50
25188;DHT22;13141;50.414;8.050;2023-02-28T16:21:10;10.70;54.30